Terminal Aerodrome Forecast
Issued by NWS Topeka, KS

Home | Current Version | Previous Version | Text Only | Print | Product List | Glossary On
Versions: 1 2 3 4 5 6 7 8 9 10 11 12 13 14 15 16 17 18
000
FTUS43 KTOP 030700 AAA
TAFTOP
TAF AMD
KTOP 030749Z 0308/0406 18012G22KT 4SM BR OVC009
      TEMPO 0308/0312 2SM -DZ BR OVC005
     FM031200 22014G23KT 6SM -DZ BR BKN030 OVC120
     FM031500 25015KT P6SM SCT030
     FM032100 33017G25KT P6SM BKN030=

USA.gov is the U.S. government's official web portal to all federal, state and local government web resources and services.